»·PEaware :: C-GMME KSNA-KBUR

C-GMME :: KSNA-KBUR

FLIGHT INFORMATION

Flight Status: Arrived
Operator: Privately registered:
Canada
More flights under this callsign
Pilot: Eric S. (12489)
Aircraft: Unknown
(EPIC)
More flights by this aircraft type
Origin: KSNA John Wayne-Orange Co
United States
Destination: KBUR Bob Hope-Burbank
United States
More flights between these airports :: More routes between these airports
Route: SLI V23 POPPR SMO125R SMO SMO311R SILEX
File this flight plan on PilotEdge
Remarks: TEC route CSTN2
Altitude:
(Current/Filed)
6,000ft
Speed:
(Current/Filed)
250kts
Departed: 11-Jan-17 01:03 PM
Arrived: 11-Jan-17 02:29 PM
Distance/Time
Traveled:
40nm/1:26
Distance/Time
To Go:
Arrived

Flight Plot

Page will automatically refresh every two minutes.


Map Options




Map Legend


Flown Route
Filed Route
Departure Airport
Arrival Airport
Navaid (VOR, NDB)
Fix

Horizontal Profiles

Position Reports

Time Latitude Longitude Heading Altitude Ground
Speed
11-Jan-17 12:39 33.676016 -117.870917 218 60ft 0kts
11-Jan-17 12:40 33.676016 -117.870917 218 60ft 0kts
11-Jan-17 12:41 33.676016 -117.870917 218 60ft 0kts
11-Jan-17 12:42 33.676016 -117.870917 218 60ft 0kts
11-Jan-17 12:43 33.676016 -117.870917 218 60ft 0kts
11-Jan-17 12:44 33.676016 -117.870917 218 60ft 0kts
11-Jan-17 12:45 33.676016 -117.870917 218 60ft 0kts
11-Jan-17 12:46 33.676016 -117.870917 218 60ft 0kts
11-Jan-17 12:47 33.676016 -117.870917 218 60ft 0kts
11-Jan-17 12:48 33.676016 -117.870917 218 60ft 0kts
11-Jan-17 12:49 33.676016 -117.870917 218 60ft 0kts
11-Jan-17 12:50 33.676016 -117.870917 218 60ft 0kts
11-Jan-17 12:51 33.676016 -117.870917 218 60ft 0kts
11-Jan-17 12:52 33.676016 -117.870917 218 60ft 0kts
11-Jan-17 12:53 33.676016 -117.870917 218 60ft 0kts
11-Jan-17 12:54 33.676016 -117.870917 218 60ft 0kts
11-Jan-17 12:55 33.676016 -117.870917 218 60ft 0kts
11-Jan-17 12:56 33.676016 -117.870917 218 60ft 0kts
11-Jan-17 12:57 33.675663 -117.870973 128 60ft 0kts
11-Jan-17 12:58 33.675651 -117.870953 128 60ft 2kts
11-Jan-17 12:59 33.678124 -117.868793 30 60ft 9kts
11-Jan-17 13:00 33.681251 -117.866484 103 60ft 5kts
11-Jan-17 13:01 33.681216 -117.866384 119 60ft 0kts
11-Jan-17 13:02 33.680927 -117.865812 138 60ft 12kts
11-Jan-17 13:03 33.658089 -117.887743 231 665ft 178kts
11-Jan-17 13:04 33.624769 -117.939145 231 1992ft 224kts
11-Jan-17 13:05 33.591497 -117.988979 231 5070ft 145kts
11-Jan-17 13:06 33.603044 -118.030231 325 5971ft 207kts
11-Jan-17 13:07 33.645896 -118.069337 313 5996ft 199kts
11-Jan-17 13:08 33.683966 -118.113934 309 5995ft 196kts
11-Jan-17 13:09 33.737256 -118.134909 341 5996ft 231kts
11-Jan-17 13:10 33.778394 -118.174712 294 5992ft 215kts
11-Jan-17 13:11 33.806295 -118.228599 301 5999ft 197kts
11-Jan-17 13:12 33.832991 -118.273063 303 5984ft 195kts
11-Jan-17 13:13 33.859334 -118.315309 303 5982ft 197kts
11-Jan-17 13:14 33.888070 -118.360840 303 5980ft 184kts
11-Jan-17 13:15 33.918391 -118.407588 320 5974ft 182kts
11-Jan-17 13:16 33.957356 -118.436152 318 5982ft 181kts
11-Jan-17 13:17 33.996040 -118.473693 322 5981ft 182kts
11-Jan-17 13:18 34.038779 -118.505758 318 5955ft 181kts
11-Jan-17 13:19 34.080206 -118.539826 328 5954ft 184kts
11-Jan-17 13:20 34.125890 -118.566418 328 5907ft 186kts
11-Jan-17 13:21 34.167352 -118.594345 323 5450ft 203kts
11-Jan-17 13:22 34.219448 -118.599327 64 2554ft 229kts
11-Jan-17 13:23 34.199857 -118.548894 132 2648ft 160kts
11-Jan-17 13:24 34.177529 -118.515623 132 2988ft 142kts
11-Jan-17 13:30 33.675855 -117.871005 218 59ft 0kts
11-Jan-17 13:31 33.675855 -117.871005 218 59ft 0kts
11-Jan-17 13:32 33.675855 -117.871005 218 59ft 0kts
11-Jan-17 13:33 33.675855 -117.871005 218 59ft 0kts
11-Jan-17 13:34 33.675855 -117.871005 218 59ft 0kts
11-Jan-17 13:35 33.675855 -117.871005 218 59ft 0kts
11-Jan-17 13:36 33.675855 -117.871005 218 59ft 0kts
11-Jan-17 13:37 33.675855 -117.871005 218 59ft 0kts
11-Jan-17 13:38 33.675855 -117.871005 218 59ft 0kts
11-Jan-17 13:39 33.675855 -117.871005 218 59ft 0kts
11-Jan-17 13:40 33.675855 -117.871005 218 59ft 0kts
11-Jan-17 13:41 33.675855 -117.871005 218 59ft 0kts
11-Jan-17 13:42 33.675682 -117.870999 130 59ft 2kts
11-Jan-17 13:43 33.675653 -117.870958 131 59ft 0kts
11-Jan-17 13:44 33.675653 -117.870958 131 59ft 0kts
11-Jan-17 13:45 33.676837 -117.869612 26 59ft 22kts
11-Jan-17 13:46 33.681205 -117.866372 112 59ft 2kts
11-Jan-17 13:47 33.681196 -117.866345 115 59ft 2kts
11-Jan-17 13:48 33.670924 -117.871839 219 369ft 73kts
11-Jan-17 13:49 33.656751 -117.894097 231 994ft 92kts
11-Jan-17 13:50 33.641711 -117.917989 231 1746ft 87kts
11-Jan-17 13:51 33.640330 -117.941449 328 2522ft 91kts
11-Jan-17 13:52 33.659488 -117.958030 303 3319ft 79kts
11-Jan-17 13:53 33.671348 -117.973889 300 3947ft 75kts
11-Jan-17 13:54 33.685279 -117.996004 299 3977ft 101kts
11-Jan-17 13:55 33.701124 -118.023635 298 3975ft 101kts
11-Jan-17 13:56 33.716645 -118.051995 297 3975ft 104kts
11-Jan-17 13:57 33.732177 -118.080856 297 3974ft 105kts
11-Jan-17 13:58 33.747578 -118.109652 297 3983ft 104kts
11-Jan-17 13:59 33.762396 -118.137419 297 3983ft 104kts
11-Jan-17 14:00 33.776235 -118.163389 297 3983ft 104kts
11-Jan-17 14:01 33.790763 -118.190687 297 3983ft 104kts
11-Jan-17 14:02 33.804920 -118.217310 297 3996ft 103kts
11-Jan-17 14:03 33.819720 -118.245165 297 3983ft 103kts
11-Jan-17 14:04 33.833970 -118.271961 297 3983ft 103kts
11-Jan-17 14:05 33.852223 -118.297572 312 3983ft 107kts
11-Jan-17 14:06 33.872656 -118.317597 319 3983ft 108kts
11-Jan-17 14:07 33.891689 -118.333349 315 3982ft 107kts
11-Jan-17 14:08 33.916525 -118.347216 330 3982ft 112kts
11-Jan-17 14:09 33.939128 -118.365103 307 3982ft 104kts
11-Jan-17 14:10 33.952351 -118.389380 287 3982ft 100kts
11-Jan-17 14:11 33.972123 -118.411708 312 3982ft 104kts
11-Jan-17 14:12 33.989853 -118.436995 302 3982ft 100kts
11-Jan-17 14:13 34.009950 -118.459697 319 3966ft 105kts
11-Jan-17 14:14 34.037888 -118.471424 322 3955ft 105kts
11-Jan-17 14:15 34.057957 -118.494543 302 3955ft 100kts
11-Jan-17 14:16 34.078291 -118.519307 307 3976ft 111kts
11-Jan-17 14:17 34.099825 -118.548526 308 3977ft 119kts
11-Jan-17 14:18 34.121418 -118.578150 308 3974ft 118kts
11-Jan-17 14:19 34.142997 -118.607635 308 3974ft 120kts
11-Jan-17 14:20 34.165781 -118.637726 326 3971ft 125kts
11-Jan-17 14:21 34.189528 -118.620042 62 3975ft 118kts
11-Jan-17 14:22 34.200464 -118.585300 90 3549ft 127kts
11-Jan-17 14:23 34.200120 -118.548840 92 3130ft 130kts
11-Jan-17 14:24 34.199696 -118.512437 95 2980ft 127kts
11-Jan-17 14:25 34.199229 -118.473888 95 2502ft 133kts
11-Jan-17 14:26 34.198746 -118.435377 95 1897ft 129kts
11-Jan-17 14:27 34.198270 -118.396971 96 1278ft 106kts
11-Jan-17 14:28 34.197974 -118.373593 98 908ft 73kts
11-Jan-17 14:29 34.197482 -118.360387 145 780ft 10kts
11-Jan-17 14:30 34.196203 -118.359795 150 780ft 0kts
11-Jan-17 14:31 34.196203 -118.359795 150 780ft 0kts
11-Jan-17 14:32 34.196203 -118.359795 150 780ft 0kts
11-Jan-17 14:33 34.196203 -118.359795 150 780ft 0kts

Navigation Log

Ident Type
1. KSNA Airport
2. SLI Navaid
3. POPPR Fix
4. SMO Navaid
5. SILEX Fix
6. KBUR Airport